Madawaska, ME (04756)

9:05 AM EDT on August 25, 2016 (GMT -0400)
W1AYX | | Change Station

Elev 545 ft 47.35 °N, 68.28 °W | Updated 9 seconds ago

Light Rain
Light Rain
68.5 °F
Feels Like 68.5 °F
N
0.7
Wind Variable Wind from East
Gusts 2.5 mph

Today
High -- | Low -- °F
--% Chance of Precip.
Yesterday
High -- | Low -- °F
Precip. -- in
Pressure 29.89 in
Visibility 10.0 miles
Clouds Mostly Cloudy 9500 ft
Overcast 11000 ft
Dew Point 64 °F
Humidity 85%
Rainfall 0.00 in
Snow Depth Not available.
5:43 AM 7:25 PM
Last Quarter, 46% visible
METAR KFVE 251253Z AUTO 17005KT 10SM -RA BKN095 OVC110 19/16 A2990 RMK AO2 RAB11 SLP120 P0000 T01890156
Pressure 29.89 in
Visibility 10.0 miles
Clouds Mostly Cloudy 9500 ft
Overcast 11000 ft
Dew Point 64 °F
Humidity 85%
Rainfall 0.00 in
Snow Depth Not available.
5:43 AM 7:25 PM
Last Quarter, 46% visible
METAR KFVE 251253Z AUTO 17005KT 10SM -RA BKN095 OVC110 19/16 A2990 RMK AO2 RAB11 SLP120 P0000 T01890156

10-Day Weather Forecast

Almanac

Astronomy

Aug. 25, 2016 Rise Set
Actual Time
Civil Twilight
Nautical Twilight
Astronomical Twilight
Moon
Length of Visible Light
Length of Day
Tomorrow will be .
, % of the Moon is Illuminated

Today's Extremes

State Highs State Lows

Community

WunderPhotos

Upload Photos

1,934,837 photos uploaded!

WunderBlog® & News

Nearby

Air Quality

  Air Quality AQ Index Pollutant
Not available.

Snow Depth

Station Depth Elevation

Earthquake Activity

City Distance Mag. Time & Date
Minimum magnitude displayed is 2.5.

Coastal Water Temperatures

Place Temperature

Stations

Nearby Weather Stations

Station Location Temp. Windchill Dew Point Humidity Wind Precip. Elev Updated Type
                   

Watches & Warnings

There are currently no watches in effect.